Time;durP1;ratioP1;P1;durP2;ratioP2;P2;SDS_P1;SDS_P2;PMS_P1;PMS_P2;Temp;Humidity;BMP_temperature;BMP_pressure;BME280_temperature;BME280_humidity;BME280_pressure;Samples;Min_cycle;Max_cycle;Signal;HPM_P1;HPM_P2
2023/03/06 00:08:26;;;;;;;;;;;;;;;3.81;88.14;100871.59;21011064;28;19973;-58
2023/03/06 00:18:47;;;;;;;;;;;;;;;3.52;88.30;100870.78;21000765;28;20083;-58
2023/03/06 00:29:09;;;;;;;;;;;;;;;3.26;88.37;100852.06;21011808;28;19928;-58
2023/03/06 00:39:30;;;;;;;;;;;;;;;3.05;88.58;100833.34;21009485;28;19924;-60
2023/03/06 00:49:51;;;;;;;;;;;;;;;3.00;88.96;100829.06;21007631;28;19925;-60
2023/03/06 01:00:13;;;;;;;;;;;;;;;2.86;90.20;100828.19;21002672;28;20310;-60
2023/03/06 01:10:38;;;;;;;;;;;;;;;2.89;90.19;100826.47;20994537;28;19943;-60
2023/03/06 01:21:00;;;;;;;;;;;;;;;2.82;90.02;100806.91;20994081;28;19932;-60
2023/03/06 01:31:22;;;;;;;;;;;;;;;2.79;90.21;100809.47;21003985;28;19932;-60
2023/03/06 01:41:44;;;;;;;;;;;;;;;2.71;89.75;100790.72;21003941;28;19925;-61
2023/03/06 01:52:07;;;;;;;;;;;;;;;2.76;90.07;100804.34;21018469;28;20322;-61
2023/03/06 02:02:29;;;;;;;;;;;;;;;2.73;89.72;100786.47;20995866;28;19943;-62
2023/03/06 02:12:50;;;;;;;;;;;;;;;2.78;89.99;100779.63;21007112;28;19928;-62
2023/03/06 02:23:31;;;;;;;;;;;;;;;2.77;89.50;100767.72;21016003;28;19977;-63
2023/03/06 02:34:03;;;;;;;;;;;;;;;2.76;89.98;100753.28;21019627;28;19928;-63
2023/03/06 02:44:25;;;;;;;;;;;;;;;2.82;89.78;100737.91;21027745;28;19977;-64
2023/03/06 02:54:47;;;;;;;;;;;;;;;2.84;89.57;100728.56;21017347;28;20024;-64
2023/03/06 03:05:08;;;;;;;;;;;;;;;2.84;89.15;100725.13;21010230;28;19981;-64
2023/03/06 03:15:30;;;;;;;;;;;;;;;2.78;89.93;100714.94;21012470;28;19924;-63
2023/03/06 03:25:51;;;;;;;;;;;;;;;2.53;90.29;100703.00;21014586;28;19928;-63
2023/03/06 03:36:13;;;;;;;;;;;;;;;2.50;90.94;100696.22;21003498;28;20260;-63
2023/03/06 03:46:34;;;;;;;;;;;;;;;2.47;90.95;100677.50;21001025;28;19924;-63
2023/03/06 03:56:56;;;;;;;;;;;;;;;2.46;91.70;100675.78;20998110;28;19924;-62
2023/03/06 04:07:17;;;;;;;;;;;;;;;2.52;91.37;100671.53;21014731;28;20402;-63
2023/03/06 04:17:38;;;;;;;;;;;;;;;2.51;91.32;100664.72;21001260;28;19989;-63
2023/03/06 04:28:00;;;;;;;;;;;;;;;2.54;90.35;100659.63;21017002;28;19997;-63
2023/03/06 04:38:22;;;;;;;;;;;;;;;2.48;90.10;100669.84;21012188;28;19932;-63
2023/03/06 04:48:43;;;;;;;;;;;;;;;2.52;91.26;100646.00;21021506;28;19928;-63
2023/03/06 04:59:04;;;;;;;;;;;;;;;2.50;91.36;100642.59;21009879;28;19928;-62
2023/03/06 05:09:26;;;;;;;;;;;;;;;2.47;91.94;100645.13;20997862;28;19925;-63
2023/03/06 05:19:47;;;;;;;;;;;;;;;2.52;91.56;100646.00;21010204;28;20357;-63
2023/03/06 05:30:11;;;;;;;;;;;;;;;2.43;91.06;100640.91;20988634;28;19924;-62
2023/03/06 05:40:32;;;;;;;;;;;;;;;2.43;91.74;100630.69;21010105;28;19924;-63
2023/03/06 05:50:58;;;;;;;;;;;;;;;2.39;91.21;100623.88;21017788;28;20382;-63
2023/03/06 06:01:20;;;;;;;;;;;;;;;2.38;91.57;100621.34;21013075;28;19929;-62
2023/03/06 06:11:41;;;;;;;;;;;;;;;2.39;92.63;100623.03;21000227;28;19970;-62
2023/03/06 06:22:03;;;;;;;;;;;;;;;2.31;91.65;100630.69;21015277;28;19925;-62
2023/03/06 06:32:24;;;;;;;;;;;;;;;2.25;91.66;100635.81;21027263;28;20302;-62
2023/03/06 06:42:46;;;;;;;;;;;;;;;2.25;92.39;100640.91;21016969;28;19929;-62
2023/03/06 06:53:07;;;;;;;;;;;;;;;2.26;92.10;100644.28;21019987;28;19928;-62
2023/03/06 07:03:29;;;;;;;;;;;;;;;2.20;92.48;100637.50;21015646;28;19977;-62
2023/03/06 07:13:50;;;;;;;;;;;;;;;2.12;92.82;100639.19;21018216;28;19928;-62
2023/03/06 07:24:12;;;;;;;;;;;;;;;2.01;93.03;100646.00;21010590;28;20256;-62
2023/03/06 07:34:33;;;;;;;;;;;;;;;1.94;92.84;100641.72;21020892;28;20333;-61
2023/03/06 07:44:54;;;;;;;;;;;;;;;1.92;92.70;100641.69;21009974;28;20330;-61
2023/03/06 07:55:16;;;;;;;;;;;;;;;1.96;92.72;100642.56;21023490;28;19968;-61
2023/03/06 08:05:37;;;;;;;;;;;;;;;1.79;92.41;100647.66;21019730;28;19932;-61
2023/03/06 08:15:59;;;;;;;;;;;;;;;1.85;92.32;100649.38;21046011;22;20273;-60
2023/03/06 08:26:22;;;;;;;;;;;;;;;1.92;92.00;100656.19;20656851;28;20017;-60
2023/03/06 08:36:44;;;;;;;;;;;;;;;1.92;92.58;100676.59;20693258;28;19926;-60
2023/03/06 08:47:05;;;;;;;;;;;;;;;2.03;92.53;100680.84;20657280;28;19982;-60
2023/03/06 08:57:26;;;;;;;;;;;;;;;2.06;91.59;100680.00;20664603;28;19926;-60
2023/03/06 09:07:48;;;;;;;;;;;;;;;2.10;93.17;100686.81;20672655;28;19929;-60
2023/03/06 09:18:09;;;;;;;;;;;;;;;2.15;90.67;100700.44;20673086;28;20020;-59
2023/03/06 09:28:31;;;;;;;;;;;;;;;2.23;90.77;100708.09;20667420;28;20396;-59
2023/03/06 09:38:52;;;;;;;;;;;;;;;2.18;91.00;100713.19;20664385;28;20364;-60
2023/03/06 09:49:24;;;;;;;;;;;;;;;2.39;91.42;100700.47;20678764;28;19971;-59
2023/03/06 09:59:47;;;;;;;;;;;;;;;2.55;90.64;100694.50;20661350;28;20009;-58
2023/03/06 10:10:22;;;;;;;;;;;;;;;2.82;91.02;100686.81;20668090;28;19926;-57
2023/03/06 10:20:44;;;;;;;;;;;;;;;2.99;90.36;100685.13;20670136;28;19948;-58
2023/03/06 10:31:17;;;;;;;;;;;;;;;3.22;90.46;100681.66;20671510;28;19929;-57
2023/03/06 10:41:38;;;;;;;;;;;;;;;3.18;89.21;100679.97;20682134;28;19925;-56
2023/03/06 10:52:06;;;;;;;;;;;;;;;3.19;89.42;100671.44;20684934;28;19925;-55
2023/03/06 11:02:32;;;;;;;;;;;;;;;3.28;89.89;100673.97;20675183;28;19987;-56
2023/03/06 11:12:56;;;;;;;;;;;;;;;3.42;89.28;100675.63;20668289;28;19979;-55
2023/03/06 11:23:20;;;;;;;;;;;;;;;3.39;88.27;100667.13;20656380;28;19926;-56
2023/03/06 11:34:05;;;;;;;;;;;;;;;3.46;88.92;100671.34;20680477;28;20363;-55
2023/03/06 11:44:39;;;;;;;;;;;;;;;3.42;88.28;100660.28;20678734;28;19937;-56
2023/03/06 11:55:00;;;;;;;;;;;;;;;3.58;88.53;100655.94;20660881;28;19925;-55
2023/03/06 12:05:37;;;;;;;;;;;;;;;3.85;87.35;100648.13;20666374;28;19930;-55
2023/03/06 12:16:17;;;;;;;;;;;;;;;4.10;87.92;100632.59;20672527;28;19926;-56
2023/03/06 12:26:57;;;;;;;;;;;;;;;4.47;87.54;100622.06;20653600;28;20629;-57
2023/03/06 12:37:28;;;;;;;;;;;;;;;4.76;82.88;100610.66;20680109;28;19925;-56
2023/03/06 12:47:52;;;;;;;;;;;;;;;5.06;81.91;100589.84;20669208;28;20536;-56
2023/03/06 12:58:29;;;;;;;;;;;;;;;5.33;79.07;100582.69;20660234;28;20037;-56
2023/03/06 13:08:57;;;;;;;;;;;;;;;5.40;78.33;100574.03;20670686;28;20407;-58
2023/03/06 13:19:23;;;;;;;;;;;;;;;5.45;76.46;100562.00;20656235;28;19979;-57
2023/03/06 13:29:49;;;;;;;;;;;;;;;5.59;75.81;100552.38;20663588;28;19926;-56
2023/03/06 13:40:11;;;;;;;;;;;;;;;5.67;74.22;100538.59;20674203;28;20320;-57
2023/03/06 13:50:38;;;;;;;;;;;;;;;5.93;74.96;100535.66;20675993;28;19929;-57
2023/03/06 14:00:59;;;;;;;;;;;;;;;6.03;73.71;100520.06;20686327;28;20104;-57
2023/03/06 14:11:21;;;;;;;;;;;;;;;6.02;72.20;100514.94;20648531;28;19961;-56
2023/03/06 14:21:53;;;;;;;;;;;;;;;6.04;71.69;100495.22;20645670;28;19995;-57
2023/03/06 14:32:16;;;;;;;;;;;;;;;6.02;72.73;100484.13;20677324;28;19929;-58
2023/03/06 14:42:38;;;;;;;;;;;;;;;5.99;72.56;100484.16;20703977;28;19948;-59
2023/03/06 14:53:03;;;;;;;;;;;;;;;6.10;69.63;100475.41;20667291;28;19929;-58
2023/03/06 15:03:45;;;;;;;;;;;;;;;6.06;70.38;100460.94;20666091;28;19926;-57
2023/03/06 15:14:16;;;;;;;;;;;;;;;6.10;69.59;100452.28;20667314;28;20381;-57
2023/03/06 15:24:37;;;;;;;;;;;;;;;6.09;69.86;100445.47;20661518;28;19926;-58
2023/03/06 15:35:17;;;;;;;;;;;;;;;6.28;70.92;100434.88;20661631;28;19930;-57
2023/03/06 15:45:39;;;;;;;;;;;;;;;6.20;70.15;100417.03;20685498;28;20321;-57
2023/03/06 15:56:01;;;;;;;;;;;;;;;6.00;71.65;100409.69;20675275;28;19932;-57
2023/03/06 16:06:23;;;;;;;;;;;;;;;5.95;69.65;100408.09;20636337;28;19933;-57
2023/03/06 16:16:44;;;;;;;;;;;;;;;5.87;68.49;100394.53;20672512;28;19926;-57
2023/03/06 16:27:13;;;;;;;;;;;;;;;5.77;69.58;100380.97;20679102;28;20345;-57
2023/03/06 16:37:35;;;;;;;;;;;;;;;5.74;69.42;100364.78;20647413;28;19933;-59
2023/03/06 16:47:57;;;;;;;;;;;;;;;5.71;70.39;100354.59;20664676;28;20349;-57
2023/03/06 16:58:20;;;;;;;;;;;;;;;5.62;70.66;100345.31;20663916;28;20308;-59
2023/03/06 17:08:42;;;;;;;;;;;;;;;5.51;72.12;100338.69;20671826;28;19937;-56
2023/03/06 17:19:03;;;;;;;;;;;;;;;5.51;70.54;100331.00;20677247;28;20025;-57
2023/03/06 17:29:26;;;;;;;;;;;;;;;5.47;70.79;100314.81;20654260;28;21553;-58
2023/03/06 17:39:48;;;;;;;;;;;;;;;5.33;71.96;100305.66;20670304;28;19929;-57
2023/03/06 17:50:10;;;;;;;;;;;;;;;5.21;71.67;100295.59;20663189;28;19926;-58
2023/03/06 18:00:31;;;;;;;;;;;;;;;5.13;74.39;100283.75;20678484;28;19937;-57
2023/03/06 18:11:02;;;;;;;;;;;;;;;5.15;71.44;100267.53;20679999;28;19933;-58
2023/03/06 18:21:24;;;;;;;;;;;;;;;5.04;71.89;100258.28;20680111;28;19926;-59
2023/03/06 18:31:48;;;;;;;;;;;;;;;5.03;69.67;100235.25;20678983;28;19985;-57
2023/03/06 18:42:10;;;;;;;;;;;;;;;5.07;71.41;100222.31;20664131;28;19925;-57
2023/03/06 18:52:32;;;;;;;;;;;;;;;5.06;72.33;100195.00;20685600;28;19979;-56
2023/03/06 19:02:53;;;;;;;;;;;;;;;5.01;71.33;100186.56;20670886;28;20462;-58
2023/03/06 19:13:15;;;;;;;;;;;;;;;5.03;71.61;100164.31;20666141;28;19930;-57
2023/03/06 19:23:36;;;;;;;;;;;;;;;5.09;70.24;100150.53;20740126;28;19925;-57
2023/03/06 19:33:58;;;;;;;;;;;;;;;5.11;71.94;100143.63;20664500;28;19937;-58
2023/03/06 19:44:19;;;;;;;;;;;;;;;5.19;71.74;100121.28;20680718;28;19929;-58
2023/03/06 19:54:41;;;;;;;;;;;;;;;5.21;72.31;100118.66;20678319;28;20402;-57
2023/03/06 20:05:03;;;;;;;;;;;;;;;5.00;75.40;100092.56;20695666;28;19930;-59
2023/03/06 20:15:26;;;;;;;;;;;;;;;4.72;78.54;100081.19;20666942;28;19929;-58
2023/03/06 20:25:48;;;;;;;;;;;;;;;4.35;82.02;100057.09;20684722;28;20388;-59
2023/03/06 20:36:17;;;;;;;;;;;;;;;4.10;84.68;100032.78;20742423;28;19930;-56
2023/03/06 20:46:38;;;;;;;;;;;;;;;4.11;85.98;100008.88;20653576;28;19998;-57
2023/03/06 20:57:00;;;;;;;;;;;;;;;4.08;87.09;99993.56;20670638;28;19930;-57
2023/03/06 21:07:21;;;;;;;;;;;;;;;4.00;87.38;99954.47;20676405;28;19994;-56
2023/03/06 21:17:42;;;;;;;;;;;;;;;3.99;87.93;99927.19;20658737;28;20280;-57
2023/03/06 21:28:04;;;;;;;;;;;;;;;4.02;88.94;99904.97;20681341;28;19930;-56
2023/03/06 21:38:25;;;;;;;;;;;;;;;4.06;89.21;99885.25;20679652;28;19940;-56
2023/03/06 21:48:47;;;;;;;;;;;;;;;4.01;88.76;99862.31;20694929;28;19926;-57
2023/03/06 21:59:08;;;;;;;;;;;;;;;4.04;89.50;99846.91;20661389;28;19987;-56
2023/03/06 22:09:30;;;;;;;;;;;;;;;4.05;88.88;99815.31;20673792;28;20065;-56
2023/03/06 22:19:51;;;;;;;;;;;;;;;4.07;91.13;99787.97;20693102;28;19971;-56
2023/03/06 22:30:13;;;;;;;;;;;;;;;4.17;89.73;99757.91;20677608;28;19930;-56
2023/03/06 22:40:34;;;;;;;;;;;;;;;4.24;90.66;99740.69;20657281;28;19933;-56
2023/03/06 22:51:00;;;;;;;;;;;;;;;4.25;90.71;99717.63;20669676;28;19929;-56
2023/03/06 23:01:23;;;;;;;;;;;;;;;4.28;89.89;99699.66;20700780;28;19924;-56
2023/03/06 23:11:45;;;;;;;;;;;;;;;4.27;90.32;99692.81;20662990;28;19979;-57
2023/03/06 23:22:07;;;;;;;;;;;;;;;4.24;90.26;99685.22;20690243;28;19929;-55
2023/03/06 23:32:29;;;;;;;;;;;;;;;4.15;90.14;99672.63;20668839;28;19930;-56
2023/03/06 23:42:51;;;;;;;;;;;;;;;4.10;91.15;99659.94;20667904;28;20291;-56
2023/03/06 23:53:13;;;;;;;;;;;;;;;4.08;91.15;99648.88;20676456;28;19925;-57
